Карточка аэропорта UHSS

Внимание!
Информация на этой странице в стадии наполнения.
Если вы не увидели какой-то информации, или заметили неточность - пожалуйста сообщите нам!
Спасибо!
Команда RU-STAFF
Название аэропортаХомутово
Название аэропорта (англ.)Khomutovo
Превышение59 ft. (18 m.)
Координаты46°53.316', 142°43.020000000001'
Высота перехода1600m
Эшелон переходаQFE>=758mm: FL70; 758mm>QFE>=731mm: FL80; QFE<731mm: FL90
Коды ответчика6601-6627
Зона ОрВДХабаровск РПИ (UHHH)
Данные METARUHSS 192300Z 07001MPS 1400 1300E R01/1700U BR SCT002 BKN011CB 19/19 Q1004 R01/290060 NOSIG RMK QBB060 MT OBSC QFE752/1002
Проноз погоды (TAF)UHSS 192000Z 1921/2103 21003MPS 3100 BR BKN007 BKN020CB TEMPO 1921/2002 0700 SHRA FG BKN003 BKN015CB BECMG 2002/2004 9999 NSW BKN020CB
NOTAMshow/hide NOTAM
AWOS   TABLE

Информация о ВПП

ВПП Длина ВПП (м.) Покрытие Курс ВПП Частота ILS
013401Железобетон12109.5
193401Железобетон192111.7

Диспетчерские позиции

Позывной Наименование органа УВД Частота
UHSS_R_APPЮжно-Сахалинск−Круг120.6
UHSS_TWRЮжно-Сахалинск−Старт122.0



Спутниковое изображение